sensor_id;sensor_type;location;lat;lon;timestamp;pressure;altitude;pressure_sealevel;temperature;humidity
21980;BME280;11154;48.558;9.234;2023-01-08T00:00:50;97047.97;;;9.74;75.25
21980;BME280;11154;48.558;9.234;2023-01-08T00:02:51;97052.94;;;9.77;74.37
21980;BME280;11154;48.558;9.234;2023-01-08T00:04:54;97049.13;;;9.72;73.18
21980;BME280;11154;48.558;9.234;2023-01-08T00:06:56;97041.50;;;9.69;73.85
21980;BME280;11154;48.558;9.234;2023-01-08T00:08:58;97039.69;;;9.69;73.99
21980;BME280;11154;48.558;9.234;2023-01-08T00:11:00;97024.56;;;9.70;74.07
21980;BME280;11154;48.558;9.234;2023-01-08T00:13:02;97029.72;;;9.63;73.32
21980;BME280;11154;48.558;9.234;2023-01-08T00:15:04;97018.44;;;9.61;72.76
21980;BME280;11154;48.558;9.234;2023-01-08T00:17:06;97013.31;;;9.60;73.36
21980;BME280;11154;48.558;9.234;2023-01-08T00:19:09;97012.00;;;9.56;72.87
21980;BME280;11154;48.558;9.234;2023-01-08T00:21:12;97002.03;;;9.58;73.71
21980;BME280;11154;48.558;9.234;2023-01-08T00:23:16;97007.84;;;9.53;73.22
21980;BME280;11154;48.558;9.234;2023-01-08T00:25:19;97016.81;;;9.52;73.92
21980;BME280;11154;48.558;9.234;2023-01-08T00:27:20;97018.28;;;9.47;73.24
21980;BME280;11154;48.558;9.234;2023-01-08T00:29:22;97008.19;;;9.42;73.45
21980;BME280;11154;48.558;9.234;2023-01-08T00:31:24;97005.22;;;9.45;73.85
21980;BME280;11154;48.558;9.234;2023-01-08T00:33:25;96999.06;;;9.45;74.41
21980;BME280;11154;48.558;9.234;2023-01-08T00:35:27;96994.09;;;9.42;74.56
21980;BME280;11154;48.558;9.234;2023-01-08T00:37:30;96991.25;;;9.43;74.66
21980;BME280;11154;48.558;9.234;2023-01-08T00:39:32;96984.31;;;9.42;74.25
21980;BME280;11154;48.558;9.234;2023-01-08T00:41:33;96977.00;;;9.44;74.46
21980;BME280;11154;48.558;9.234;2023-01-08T00:43:35;96983.31;;;9.43;74.63
21980;BME280;11154;48.558;9.234;2023-01-08T00:45:37;96964.25;;;9.40;74.32
21980;BME280;11154;48.558;9.234;2023-01-08T00:47:38;96965.72;;;9.42;75.30
21980;BME280;11154;48.558;9.234;2023-01-08T00:49:40;96966.41;;;9.44;74.36
21980;BME280;11154;48.558;9.234;2023-01-08T00:51:42;96963.25;;;9.41;74.53
21980;BME280;11154;48.558;9.234;2023-01-08T00:53:45;96963.25;;;9.41;74.36
21980;BME280;11154;48.558;9.234;2023-01-08T00:55:47;96957.13;;;9.40;74.25
21980;BME280;11154;48.558;9.234;2023-01-08T00:57:48;96957.44;;;9.37;73.84
21980;BME280;11154;48.558;9.234;2023-01-08T00:59:50;96959.78;;;9.40;75.42
21980;BME280;11154;48.558;9.234;2023-01-08T01:01:52;96960.41;;;9.42;74.37
21980;BME280;11154;48.558;9.234;2023-01-08T01:03:54;96962.75;;;9.45;75.50
21980;BME280;11154;48.558;9.234;2023-01-08T01:06:00;96952.28;;;9.44;74.10
21980;BME280;11154;48.558;9.234;2023-01-08T01:08:01;96959.44;;;9.43;74.82
21980;BME280;11154;48.558;9.234;2023-01-08T01:10:06;96949.00;;;9.42;74.68
21980;BME280;11154;48.558;9.234;2023-01-08T01:12:07;96942.84;;;9.41;75.16
21980;BME280;11154;48.558;9.234;2023-01-08T01:14:09;96952.81;;;9.39;74.54
21980;BME280;11154;48.558;9.234;2023-01-08T01:16:11;96944.84;;;9.39;75.11
21980;BME280;11154;48.558;9.234;2023-01-08T01:18:12;96938.69;;;9.39;74.56
21980;BME280;11154;48.558;9.234;2023-01-08T01:20:15;96934.75;;;9.35;74.11
21980;BME280;11154;48.558;9.234;2023-01-08T01:22:17;96932.59;;;9.31;74.78
21980;BME280;11154;48.558;9.234;2023-01-08T01:24:18;96947.34;;;9.25;75.15
21980;BME280;11154;48.558;9.234;2023-01-08T01:26:25;96951.31;;;9.21;75.36
21980;BME280;11154;48.558;9.234;2023-01-08T01:28:26;96952.66;;;9.17;74.47
21980;BME280;11154;48.558;9.234;2023-01-08T01:30:28;96949.84;;;9.11;74.33
21980;BME280;11154;48.558;9.234;2023-01-08T01:32:30;96951.84;;;9.09;75.24
21980;BME280;11154;48.558;9.234;2023-01-08T01:34:32;96959.63;;;9.02;74.59
21980;BME280;11154;48.558;9.234;2023-01-08T01:36:34;96950.19;;;9.00;74.41
21980;BME280;11154;48.558;9.234;2023-01-08T01:38:36;96957.47;;;8.98;74.87
21980;BME280;11154;48.558;9.234;2023-01-08T01:40:40;96966.91;;;9.00;75.21
21980;BME280;11154;48.558;9.234;2023-01-08T01:42:43;96961.78;;;8.99;74.32
21980;BME280;11154;48.558;9.234;2023-01-08T01:44:45;96964.09;;;9.02;75.21
21980;BME280;11154;48.558;9.234;2023-01-08T01:46:47;96962.44;;;9.01;74.42
21980;BME280;11154;48.558;9.234;2023-01-08T01:48:52;96972.72;;;9.04;73.83
21980;BME280;11154;48.558;9.234;2023-01-08T01:50:55;96967.09;;;9.07;74.50
21980;BME280;11154;48.558;9.234;2023-01-08T01:53:01;96961.97;;;9.05;73.82
21980;BME280;11154;48.558;9.234;2023-01-08T01:55:04;96961.09;;;9.05;74.87
21980;BME280;11154;48.558;9.234;2023-01-08T01:57:07;96963.59;;;9.06;74.31
21980;BME280;11154;48.558;9.234;2023-01-08T01:59:11;96953.66;;;9.08;74.43
21980;BME280;11154;48.558;9.234;2023-01-08T02:01:13;96922.88;;;7.77;80.30
21980;BME280;11154;48.558;9.234;2023-01-08T02:03:15;96928.31;;;6.74;86.94
21980;BME280;11154;48.558;9.234;2023-01-08T02:05:18;96922.28;;;6.30;91.01
21980;BME280;11154;48.558;9.234;2023-01-08T02:07:26;96916.09;;;6.04;92.89
21980;BME280;11154;48.558;9.234;2023-01-08T02:09:39;96909.34;;;5.92;94.96
21980;BME280;11154;48.558;9.234;2023-01-08T02:11:46;96903.09;;;5.93;96.65
21980;BME280;11154;48.558;9.234;2023-01-08T02:14:15;96900.72;;;5.99;97.96
21980;BME280;11154;48.558;9.234;2023-01-08T02:16:25;96903.00;;;5.85;96.74
21980;BME280;11154;48.558;9.234;2023-01-08T02:18:34;96912.00;;;5.65;97.65
21980;BME280;11154;48.558;9.234;2023-01-08T02:20:40;96910.22;;;5.56;97.68
21980;BME280;11154;48.558;9.234;2023-01-08T02:23:07;96897.81;;;5.39;98.97
21980;BME280;11154;48.558;9.234;2023-01-08T02:25:17;96885.56;;;5.48;100.00
21980;BME280;11154;48.558;9.234;2023-01-08T02:27:24;96899.28;;;5.51;99.92
21980;BME280;11154;48.558;9.234;2023-01-08T02:29:29;96882.97;;;5.38;99.87
21980;BME280;11154;48.558;9.234;2023-01-08T02:31:34;96885.34;;;5.32;99.92
21980;BME280;11154;48.558;9.234;2023-01-08T02:33:36;96879.50;;;5.38;100.00
21980;BME280;11154;48.558;9.234;2023-01-08T02:35:39;96868.81;;;5.39;100.00
21980;BME280;11154;48.558;9.234;2023-01-08T02:37:42;96863.69;;;5.65;100.00
21980;BME280;11154;48.558;9.234;2023-01-08T02:39:55;96855.13;;;5.53;100.00
21980;BME280;11154;48.558;9.234;2023-01-08T02:42:05;96847.75;;;5.57;100.00
21980;BME280;11154;48.558;9.234;2023-01-08T02:44:11;96844.84;;;5.60;100.00
21980;BME280;11154;48.558;9.234;2023-01-08T02:46:21;96836.63;;;5.63;100.00
21980;BME280;11154;48.558;9.234;2023-01-08T02:48:30;96832.56;;;5.68;100.00
21980;BME280;11154;48.558;9.234;2023-01-08T02:50:37;96840.59;;;5.76;100.00
21980;BME280;11154;48.558;9.234;2023-01-08T02:52:47;96831.56;;;5.78;100.00
21980;BME280;11154;48.558;9.234;2023-01-08T02:54:50;96835.47;;;5.74;100.00
21980;BME280;11154;48.558;9.234;2023-01-08T02:56:56;96831.06;;;5.66;100.00
21980;BME280;11154;48.558;9.234;2023-01-08T02:59:01;96820.28;;;5.59;100.00
21980;BME280;11154;48.558;9.234;2023-01-08T03:01:08;96812.59;;;5.66;100.00
21980;BME280;11154;48.558;9.234;2023-01-08T03:03:13;96809.38;;;5.71;100.00
21980;BME280;11154;48.558;9.234;2023-01-08T03:05:20;96818.13;;;5.72;100.00
21980;BME280;11154;48.558;9.234;2023-01-08T03:07:23;96808.31;;;5.65;100.00
21980;BME280;11154;48.558;9.234;2023-01-08T03:09:25;96811.47;;;5.68;100.00
21980;BME280;11154;48.558;9.234;2023-01-08T03:11:30;96814.81;;;5.70;100.00
21980;BME280;11154;48.558;9.234;2023-01-08T03:13:37;96812.59;;;5.66;100.00
21980;BME280;11154;48.558;9.234;2023-01-08T03:15:44;96810.34;;;5.70;100.00
21980;BME280;11154;48.558;9.234;2023-01-08T03:17:49;96818.03;;;5.64;100.00
21980;BME280;11154;48.558;9.234;2023-01-08T03:19:55;96797.81;;;5.55;100.00
21980;BME280;11154;48.558;9.234;2023-01-08T03:21:58;96815.03;;;5.59;100.00
21980;BME280;11154;48.558;9.234;2023-01-08T03:24:02;96799.72;;;5.63;100.00
21980;BME280;11154;48.558;9.234;2023-01-08T03:26:05;96797.31;;;5.69;100.00
21980;BME280;11154;48.558;9.234;2023-01-08T03:28:11;96808.25;;;5.74;100.00
21980;BME280;11154;48.558;9.234;2023-01-08T03:30:15;96793.88;;;5.69;100.00
21980;BME280;11154;48.558;9.234;2023-01-08T03:32:19;96787.94;;;5.84;100.00
21980;BME280;11154;48.558;9.234;2023-01-08T03:34:25;96787.16;;;5.74;100.00
21980;BME280;11154;48.558;9.234;2023-01-08T03:36:29;96785.34;;;5.57;100.00
21980;BME280;11154;48.558;9.234;2023-01-08T03:38:33;96773.94;;;5.57;100.00
21980;BME280;11154;48.558;9.234;2023-01-08T03:40:40;96794.22;;;5.56;100.00
21980;BME280;11154;48.558;9.234;2023-01-08T03:42:43;96779.47;;;5.63;100.00
21980;BME280;11154;48.558;9.234;2023-01-08T03:44:45;96778.25;;;5.75;100.00
21980;BME280;11154;48.558;9.234;2023-01-08T03:46:50;96786.50;;;5.72;100.00
21980;BME280;11154;48.558;9.234;2023-01-08T03:48:54;96783.66;;;5.83;100.00
21980;BME280;11154;48.558;9.234;2023-01-08T03:50:58;96777.44;;;5.92;100.00
21980;BME280;11154;48.558;9.234;2023-01-08T03:52:59;96775.94;;;6.07;100.00
21980;BME280;11154;48.558;9.234;2023-01-08T03:55:01;96780.69;;;6.03;100.00
21980;BME280;11154;48.558;9.234;2023-01-08T03:57:03;96787.88;;;5.93;100.00
21980;BME280;11154;48.558;9.234;2023-01-08T03:59:05;96780.78;;;5.76;100.00
21980;BME280;11154;48.558;9.234;2023-01-08T04:01:06;96819.06;;;6.33;99.57
21980;BME280;11154;48.558;9.234;2023-01-08T04:03:08;96809.44;;;7.00;95.35
21980;BME280;11154;48.558;9.234;2023-01-08T04:05:10;96812.25;;;7.31;89.48
21980;BME280;11154;48.558;9.234;2023-01-08T04:07:13;96809.22;;;7.60;88.13
21980;BME280;11154;48.558;9.234;2023-01-08T04:09:15;96813.94;;;7.82;84.34
21980;BME280;11154;48.558;9.234;2023-01-08T04:11:17;96811.31;;;8.05;83.63
21980;BME280;11154;48.558;9.234;2023-01-08T04:13:18;96812.00;;;8.15;81.56
21980;BME280;11154;48.558;9.234;2023-01-08T04:15:20;96807.41;;;8.25;80.67
21980;BME280;11154;48.558;9.234;2023-01-08T04:17:21;96808.22;;;8.34;80.69
21980;BME280;11154;48.558;9.234;2023-01-08T04:19:23;96810.22;;;8.40;79.93
21980;BME280;11154;48.558;9.234;2023-01-08T04:21:25;96817.31;;;8.47;79.42
21980;BME280;11154;48.558;9.234;2023-01-08T04:23:28;96810.38;;;8.54;79.63
21980;BME280;11154;48.558;9.234;2023-01-08T04:25:29;96797.31;;;8.61;80.39
21980;BME280;11154;48.558;9.234;2023-01-08T04:27:31;96806.38;;;8.66;80.82
21980;BME280;11154;48.558;9.234;2023-01-08T04:29:33;96806.38;;;8.74;81.52
21980;BME280;11154;48.558;9.234;2023-01-08T04:31:34;96811.00;;;8.80;82.08
21980;BME280;11154;48.558;9.234;2023-01-08T04:33:36;96807.03;;;8.84;82.37
21980;BME280;11154;48.558;9.234;2023-01-08T04:35:38;96807.50;;;8.95;81.85
21980;BME280;11154;48.558;9.234;2023-01-08T04:37:39;96815.63;;;9.02;81.95
21980;BME280;11154;48.558;9.234;2023-01-08T04:39:42;96829.19;;;9.07;82.52
21980;BME280;11154;48.558;9.234;2023-01-08T04:41:44;96838.13;;;9.14;82.18
21980;BME280;11154;48.558;9.234;2023-01-08T04:43:45;96834.13;;;9.26;81.96
21980;BME280;11154;48.558;9.234;2023-01-08T04:45:47;96832.75;;;9.37;82.60
21980;BME280;11154;48.558;9.234;2023-01-08T04:47:54;96827.06;;;9.48;82.29
21980;BME280;11154;48.558;9.234;2023-01-08T04:49:56;96838.66;;;9.55;81.48
21980;BME280;11154;48.558;9.234;2023-01-08T04:51:57;96851.25;;;9.61;81.08
21980;BME280;11154;48.558;9.234;2023-01-08T04:53:59;96847.94;;;9.59;81.41
21980;BME280;11154;48.558;9.234;2023-01-08T04:56:03;96847.25;;;9.65;81.21
21980;BME280;11154;48.558;9.234;2023-01-08T04:58:05;96848.56;;;9.69;81.22
21980;BME280;11154;48.558;9.234;2023-01-08T05:00:08;96856.00;;;9.74;81.14
21980;BME280;11154;48.558;9.234;2023-01-08T05:02:10;96864.09;;;9.80;80.76
21980;BME280;11154;48.558;9.234;2023-01-08T05:04:11;96867.91;;;9.86;80.28
21980;BME280;11154;48.558;9.234;2023-01-08T05:06:13;96850.31;;;9.85;79.85
21980;BME280;11154;48.558;9.234;2023-01-08T05:08:15;96851.78;;;9.87;79.81
21980;BME280;11154;48.558;9.234;2023-01-08T05:10:16;96855.09;;;9.89;80.28
21980;BME280;11154;48.558;9.234;2023-01-08T05:12:19;96845.16;;;9.91;79.59
21980;BME280;11154;48.558;9.234;2023-01-08T05:14:21;96848.28;;;9.95;79.83
21980;BME280;11154;48.558;9.234;2023-01-08T05:16:23;96840.81;;;9.98;79.53
21980;BME280;11154;48.558;9.234;2023-01-08T05:18:25;96848.75;;;9.98;80.17
21980;BME280;11154;48.558;9.234;2023-01-08T05:20:27;96835.97;;;10.02;80.62
21980;BME280;11154;48.558;9.234;2023-01-08T05:22:29;96851.09;;;10.01;80.98
21980;BME280;11154;48.558;9.234;2023-01-08T05:24:31;96831.13;;;10.05;81.47
21980;BME280;11154;48.558;9.234;2023-01-08T05:26:32;96833.47;;;10.08;80.98
21980;BME280;11154;48.558;9.234;2023-01-08T05:28:36;96837.78;;;10.09;80.89
21980;BME280;11154;48.558;9.234;2023-01-08T05:30:37;96841.06;;;10.11;81.16
21980;BME280;11154;48.558;9.234;2023-01-08T05:32:39;96826.06;;;10.18;81.15
21980;BME280;11154;48.558;9.234;2023-01-08T05:34:40;96835.63;;;10.35;86.41
21980;BME280;11154;48.558;9.234;2023-01-08T05:36:42;96835.13;;;10.31;83.40
21980;BME280;11154;48.558;9.234;2023-01-08T05:38:44;96840.31;;;10.25;81.51
21980;BME280;11154;48.558;9.234;2023-01-08T05:40:45;96839.84;;;10.21;81.42
21980;BME280;11154;48.558;9.234;2023-01-08T05:42:47;96837.03;;;10.23;80.89
21980;BME280;11154;48.558;9.234;2023-01-08T05:44:50;96832.06;;;10.20;81.66
21980;BME280;11154;48.558;9.234;2023-01-08T05:46:51;96829.09;;;10.15;80.66
21980;BME280;11154;48.558;9.234;2023-01-08T05:48:53;96826.84;;;10.04;78.91
21980;BME280;11154;48.558;9.234;2023-01-08T05:50:55;96835.00;;;9.95;78.92
21980;BME280;11154;48.558;9.234;2023-01-08T05:52:57;96839.50;;;9.86;78.53
21980;BME280;11154;48.558;9.234;2023-01-08T05:54:58;96835.88;;;9.79;77.62
21980;BME280;11154;48.558;9.234;2023-01-08T05:57:00;96830.78;;;9.70;77.34
21980;BME280;11154;48.558;9.234;2023-01-08T05:59:02;96836.28;;;9.68;78.57
21980;BME280;11154;48.558;9.234;2023-01-08T06:01:07;96844.59;;;9.65;78.19
21980;BME280;11154;48.558;9.234;2023-01-08T06:03:09;96848.56;;;9.69;79.01
21980;BME280;11154;48.558;9.234;2023-01-08T06:05:11;96833.59;;;9.76;79.85
21980;BME280;11154;48.558;9.234;2023-01-08T06:07:12;96814.13;;;9.84;80.82
21980;BME280;11154;48.558;9.234;2023-01-08T06:09:14;96810.63;;;9.91;80.57
21980;BME280;11154;48.558;9.234;2023-01-08T06:11:15;96812.75;;;9.96;79.68
21980;BME280;11154;48.558;9.234;2023-01-08T06:13:17;96805.75;;;10.03;80.50
21980;BME280;11154;48.558;9.234;2023-01-08T06:15:19;96805.72;;;10.10;80.26
21980;BME280;11154;48.558;9.234;2023-01-08T06:17:21;96803.50;;;10.22;80.66
21980;BME280;11154;48.558;9.234;2023-01-08T06:19:23;96801.47;;;10.24;80.57
21980;BME280;11154;48.558;9.234;2023-01-08T06:21:25;96802.78;;;10.28;79.85
21980;BME280;11154;48.558;9.234;2023-01-08T06:23:26;96812.03;;;10.32;80.09
21980;BME280;11154;48.558;9.234;2023-01-08T06:25:28;96819.72;;;10.27;79.61
21980;BME280;11154;48.558;9.234;2023-01-08T06:27:30;96811.38;;;10.30;80.64
21980;BME280;11154;48.558;9.234;2023-01-08T06:29:31;96823.56;;;10.24;81.20
21980;BME280;11154;48.558;9.234;2023-01-08T06:31:33;96825.94;;;10.19;81.73
21980;BME280;11154;48.558;9.234;2023-01-08T06:33:36;96831.72;;;10.23;81.90
21980;BME280;11154;48.558;9.234;2023-01-08T06:35:38;96833.72;;;10.21;82.16
21980;BME280;11154;48.558;9.234;2023-01-08T06:37:39;96837.03;;;10.23;82.48
21980;BME280;11154;48.558;9.234;2023-01-08T06:39:41;96824.38;;;10.25;82.63
21980;BME280;11154;48.558;9.234;2023-01-08T06:41:42;96827.31;;;10.30;82.79
21980;BME280;11154;48.558;9.234;2023-01-08T06:43:44;96824.03;;;10.28;82.50
21980;BME280;11154;48.558;9.234;2023-01-08T06:45:52;96824.31;;;10.33;83.13
21980;BME280;11154;48.558;9.234;2023-01-08T06:47:53;96815.47;;;10.40;83.77
21980;BME280;11154;48.558;9.234;2023-01-08T06:49:56;96808.81;;;10.44;83.31
21980;BME280;11154;48.558;9.234;2023-01-08T06:51:58;96802.00;;;10.42;83.45
21980;BME280;11154;48.558;9.234;2023-01-08T06:54:00;96802.00;;;10.42;83.55
21980;BME280;11154;48.558;9.234;2023-01-08T06:56:02;96804.69;;;10.42;84.43
21980;BME280;11154;48.558;9.234;2023-01-08T06:58:04;96806.78;;;10.46;84.59
21980;BME280;11154;48.558;9.234;2023-01-08T07:00:06;96807.97;;;10.44;83.20
21980;BME280;11154;48.558;9.234;2023-01-08T07:02:12;96807.50;;;10.40;82.90
21980;BME280;11154;48.558;9.234;2023-01-08T07:04:13;96808.66;;;10.38;83.18
21980;BME280;11154;48.558;9.234;2023-01-08T07:06:18;96810.34;;;10.39;83.45
21980;BME280;11154;48.558;9.234;2023-01-08T07:08:21;96807.50;;;10.40;84.52
21980;BME280;11154;48.558;9.234;2023-01-08T07:10:22;96799.84;;;10.45;85.63
21980;BME280;11154;48.558;9.234;2023-01-08T07:12:25;96795.44;;;10.52;86.49
21980;BME280;11154;48.558;9.234;2023-01-08T07:14:27;96795.91;;;10.56;86.78
21980;BME280;11154;48.558;9.234;2023-01-08T07:16:28;96793.56;;;10.61;87.61
21980;BME280;11154;48.558;9.234;2023-01-08T07:18:30;96805.13;;;10.68;88.15
21980;BME280;11154;48.558;9.234;2023-01-08T07:20:32;96797.44;;;10.73;88.88
21980;BME280;11154;48.558;9.234;2023-01-08T07:22:35;96815.97;;;10.80;89.88
21980;BME280;11154;48.558;9.234;2023-01-08T07:24:37;96813.66;;;10.77;87.34
21980;BME280;11154;48.558;9.234;2023-01-08T07:26:38;96816.03;;;10.73;85.98
21980;BME280;11154;48.558;9.234;2023-01-08T07:28:41;96816.91;;;10.65;85.75
21980;BME280;11154;48.558;9.234;2023-01-08T07:30:42;96823.59;;;10.61;85.19
21980;BME280;11154;48.558;9.234;2023-01-08T07:32:44;96825.78;;;10.58;85.23
21980;BME280;11154;48.558;9.234;2023-01-08T07:34:46;96824.13;;;10.57;85.07
21980;BME280;11154;48.558;9.234;2023-01-08T07:36:47;96824.59;;;10.60;85.28
21980;BME280;11154;48.558;9.234;2023-01-08T07:38:50;96820.59;;;10.64;86.28
21980;BME280;11154;48.558;9.234;2023-01-08T07:40:52;96817.31;;;10.77;86.03
21980;BME280;11154;48.558;9.234;2023-01-08T07:42:57;96808.00;;;10.80;87.27
21980;BME280;11154;48.558;9.234;2023-01-08T07:44:59;96812.94;;;10.83;87.66
21980;BME280;11154;48.558;9.234;2023-01-08T07:47:01;96805.25;;;10.88;87.99
21980;BME280;11154;48.558;9.234;2023-01-08T07:49:03;96801.03;;;10.94;88.96
21980;BME280;11154;48.558;9.234;2023-01-08T07:51:06;96809.75;;;11.02;88.93
21980;BME280;11154;48.558;9.234;2023-01-08T07:53:09;96812.75;;;11.22;88.33
21980;BME280;11154;48.558;9.234;2023-01-08T07:55:12;96811.09;;;11.21;87.85
21980;BME280;11154;48.558;9.234;2023-01-08T07:57:14;96795.28;;;11.19;88.33
21980;BME280;11154;48.558;9.234;2023-01-08T07:59:16;96804.56;;;11.23;88.48
21980;BME280;11154;48.558;9.234;2023-01-08T08:01:17;96817.03;;;11.23;88.58
21980;BME280;11154;48.558;9.234;2023-01-08T08:03:19;96806.22;;;11.24;88.99
21980;BME280;11154;48.558;9.234;2023-01-08T08:05:20;96821.06;;;11.19;89.90
21980;BME280;11154;48.558;9.234;2023-01-08T08:07:22;96820.59;;;11.15;89.79
21980;BME280;11154;48.558;9.234;2023-01-08T08:09:24;96815.09;;;11.17;89.98
21980;BME280;11154;48.558;9.234;2023-01-08T08:11:27;96807.31;;;11.15;90.68
21980;BME280;11154;48.558;9.234;2023-01-08T08:13:28;96796.66;;;11.15;90.93
21980;BME280;11154;48.558;9.234;2023-01-08T08:15:30;96804.66;;;11.30;90.98
21980;BME280;11154;48.558;9.234;2023-01-08T08:17:32;96803.00;;;11.43;91.02
21980;BME280;11154;48.558;9.234;2023-01-08T08:19:34;96793.38;;;11.42;91.25
21980;BME280;11154;48.558;9.234;2023-01-08T08:21:35;96802.16;;;11.43;91.24
21980;BME280;11154;48.558;9.234;2023-01-08T08:23:37;96796.59;;;11.52;91.04
21980;BME280;11154;48.558;9.234;2023-01-08T08:25:39;96787.13;;;11.64;90.19
21980;BME280;11154;48.558;9.234;2023-01-08T08:27:43;96781.50;;;11.73;89.95
21980;BME280;11154;48.558;9.234;2023-01-08T08:29:45;96774.25;;;11.82;89.97
21980;BME280;11154;48.558;9.234;2023-01-08T08:31:46;96787.44;;;11.90;89.92
21980;BME280;11154;48.558;9.234;2023-01-08T08:33:48;96777.72;;;11.82;89.56
21980;BME280;11154;48.558;9.234;2023-01-08T08:35:50;96778.09;;;11.79;89.88
21980;BME280;11154;48.558;9.234;2023-01-08T08:37:52;96785.06;;;11.80;90.12
21980;BME280;11154;48.558;9.234;2023-01-08T08:39:54;96789.19;;;11.83;90.93
21980;BME280;11154;48.558;9.234;2023-01-08T08:41:56;96784.16;;;11.88;91.04
21980;BME280;11154;48.558;9.234;2023-01-08T08:43:59;96783.13;;;11.89;90.53
21980;BME280;11154;48.558;9.234;2023-01-08T08:46:00;96782.13;;;11.90;90.39
21980;BME280;11154;48.558;9.234;2023-01-08T08:48:04;96788.66;;;11.87;90.51
21980;BME280;11154;48.558;9.234;2023-01-08T08:50:07;96777.53;;;11.84;90.30
21980;BME280;11154;48.558;9.234;2023-01-08T08:52:08;96783.06;;;11.82;90.57
21980;BME280;11154;48.558;9.234;2023-01-08T08:54:10;96775.88;;;11.83;90.49
21980;BME280;11154;48.558;9.234;2023-01-08T08:56:12;96773.41;;;11.81;91.33
21980;BME280;11154;48.558;9.234;2023-01-08T08:58:13;96766.28;;;11.82;91.59
21980;BME280;11154;48.558;9.234;2023-01-08T09:00:17;96767.53;;;11.86;91.96
21980;BME280;11154;48.558;9.234;2023-01-08T09:02:19;96767.53;;;11.86;91.97
21980;BME280;11154;48.558;9.234;2023-01-08T09:04:20;96768.34;;;11.86;92.01
21980;BME280;11154;48.558;9.234;2023-01-08T09:06:22;96756.47;;;11.89;92.07
21980;BME280;11154;48.558;9.234;2023-01-08T09:08:26;96754.47;;;11.91;92.04
21980;BME280;11154;48.558;9.234;2023-01-08T09:10:28;96751.59;;;11.57;93.76
21980;BME280;11154;48.558;9.234;2023-01-08T09:12:30;96747.84;;;11.37;95.52
21980;BME280;11154;48.558;9.234;2023-01-08T09:14:31;96750.88;;;11.20;95.97
21980;BME280;11154;48.558;9.234;2023-01-08T09:16:35;96748.59;;;11.02;97.26
21980;BME280;11154;48.558;9.234;2023-01-08T09:18:36;96749.59;;;11.01;98.04
21980;BME280;11154;48.558;9.234;2023-01-08T09:20:38;96746.13;;;11.01;97.79
21980;BME280;11154;48.558;9.234;2023-01-08T09:22:39;96755.38;;;11.19;97.92
21980;BME280;11154;48.558;9.234;2023-01-08T09:24:41;96746.19;;;11.36;97.27
21980;BME280;11154;48.558;9.234;2023-01-08T09:26:43;96754.41;;;11.70;96.22
21980;BME280;11154;48.558;9.234;2023-01-08T09:28:44;96756.13;;;11.92;94.60
21980;BME280;11154;48.558;9.234;2023-01-08T09:30:46;96745.25;;;12.08;93.75
21980;BME280;11154;48.558;9.234;2023-01-08T09:32:49;96742.50;;;12.22;93.11
21980;BME280;11154;48.558;9.234;2023-01-08T09:34:50;96748.78;;;12.35;92.79
21980;BME280;11154;48.558;9.234;2023-01-08T09:36:52;96750.47;;;12.43;92.09
21980;BME280;11154;48.558;9.234;2023-01-08T09:38:54;96753.03;;;12.51;91.17
21980;BME280;11154;48.558;9.234;2023-01-08T09:40:57;96741.41;;;12.58;91.12
21980;BME280;11154;48.558;9.234;2023-01-08T09:43:00;96748.47;;;12.45;90.54
21980;BME280;11154;48.558;9.234;2023-01-08T09:45:07;96751.56;;;12.27;91.91
21980;BME280;11154;48.558;9.234;2023-01-08T09:47:21;96745.34;;;12.21;93.23
21980;BME280;11154;48.558;9.234;2023-01-08T09:49:38;96731.41;;;12.19;93.59
21980;BME280;11154;48.558;9.234;2023-01-08T09:51:41;96736.75;;;12.19;93.19
21980;BME280;11154;48.558;9.234;2023-01-08T09:53:43;96742.06;;;12.19;92.85
21980;BME280;11154;48.558;9.234;2023-01-08T09:55:48;96735.09;;;12.18;92.57
21980;BME280;11154;48.558;9.234;2023-01-08T09:57:52;96734.28;;;12.17;92.22
21980;BME280;11154;48.558;9.234;2023-01-08T09:59:54;96743.72;;;12.20;91.67
21980;BME280;11154;48.558;9.234;2023-01-08T10:01:56;96746.84;;;12.23;91.27
21980;BME280;11154;48.558;9.234;2023-01-08T10:04:03;96740.91;;;12.27;90.99
21980;BME280;11154;48.558;9.234;2023-01-08T10:06:10;96738.88;;;12.29;90.85
21980;BME280;11154;48.558;9.234;2023-01-08T10:08:13;96733.34;;;12.31;91.00
21980;BME280;11154;48.558;9.234;2023-01-08T10:10:20;96742.81;;;12.33;90.66
21980;BME280;11154;48.558;9.234;2023-01-08T10:12:25;96737.09;;;12.36;89.93
21980;BME280;11154;48.558;9.234;2023-01-08T10:14:30;96744.34;;;12.42;89.45
21980;BME280;11154;48.558;9.234;2023-01-08T10:16:34;96738.63;;;12.45;88.94
21980;BME280;11154;48.558;9.234;2023-01-08T10:18:37;96738.69;;;12.52;88.56
21980;BME280;11154;48.558;9.234;2023-01-08T10:20:40;96735.66;;;12.55;88.31
21980;BME280;11154;48.558;9.234;2023-01-08T10:22:43;96738.75;;;12.58;87.29
21980;BME280;11154;48.558;9.234;2023-01-08T10:24:46;96736.31;;;12.63;87.15
21980;BME280;11154;48.558;9.234;2023-01-08T10:26:48;96736.94;;;12.65;86.14
21980;BME280;11154;48.558;9.234;2023-01-08T10:28:50;96735.16;;;12.72;85.77
21980;BME280;11154;48.558;9.234;2023-01-08T10:30:53;96734.78;;;12.75;85.74
21980;BME280;11154;48.558;9.234;2023-01-08T10:33:03;96730.69;;;12.79;85.90
21980;BME280;11154;48.558;9.234;2023-01-08T10:35:13;96729.47;;;12.82;84.90
21980;BME280;11154;48.558;9.234;2023-01-08T10:37:28;96728.91;;;12.86;84.98
21980;BME280;11154;48.558;9.234;2023-01-08T10:39:31;96730.38;;;12.89;85.26
21980;BME280;11154;48.558;9.234;2023-01-08T10:41:36;96727.94;;;12.94;84.04
21980;BME280;11154;48.558;9.234;2023-01-08T10:43:50;96723.03;;;12.97;84.06
21980;BME280;11154;48.558;9.234;2023-01-08T10:45:56;96717.69;;;12.97;84.34
21980;BME280;11154;48.558;9.234;2023-01-08T10:48:00;96713.66;;;13.01;84.06
21980;BME280;11154;48.558;9.234;2023-01-08T10:50:16;96715.28;;;13.02;82.99
21980;BME280;11154;48.558;9.234;2023-01-08T10:52:25;96715.47;;;13.00;83.90
21980;BME280;11154;48.558;9.234;2023-01-08T10:54:33;96709.31;;;13.00;84.39
21980;BME280;11154;48.558;9.234;2023-01-08T10:56:40;96706.66;;;13.00;84.82